Time;durP1;ratioP1;P1;durP2;ratioP2;P2;SDS_P1;SDS_P2;PMS_P1;PMS_P2;Temp;Humidity;BMP_temperature;BMP_pressure;BME280_temperature;BME280_humidity;BME280_pressure;Samples;Min_cycle;Max_cycle;Signal;HPM_P1;HPM_P2
2022/09/02 00:17:20;;;;;;;;;;;;;;;20.54;98.64;99437.25;4986117;28;1443;-59
2022/09/02 00:19:47;;;;;;;;;;;;;;;20.53;98.75;99434.94;4991789;28;1248;-59
2022/09/02 00:22:14;;;;;;;;;;;;;;;20.53;99.07;99441.31;4993405;28;783;-59
2022/09/02 00:24:41;;;;;;;;;;;;;;;20.56;98.71;99437.53;4993056;28;818;-59
2022/09/02 00:27:08;;;;;;;;;;;;;;;20.55;98.63;99433.22;4992896;28;1918;-59
2022/09/02 00:29:35;;;;;;;;;;;;;;;20.51;98.59;99443.06;4991704;28;1472;-59
2022/09/02 00:32:02;;;;;;;;;;;;;;;20.52;98.68;99444.59;4992906;28;877;-60
2022/09/02 00:34:29;;;;;;;;;;;;;;;20.53;98.75;99446.19;4992840;28;869;-59
2022/09/02 00:36:56;;;;;;;;;;;;;;;20.54;98.40;99445.69;4992814;28;909;-59
2022/09/02 00:39:23;;;;;;;;;;;;;;;20.53;98.33;99449.75;4992841;28;909;-59
2022/09/02 00:41:50;;;;;;;;;;;;;;;20.47;98.31;99448.84;4992602;28;854;-59
2022/09/02 00:44:18;;;;;;;;;;;;;;;20.40;98.38;99446.44;4991480;28;1457;-59
2022/09/02 00:46:45;;;;;;;;;;;;;;;20.37;98.40;99447.38;4992615;28;1949;-58
2022/09/02 00:49:18;;;;;;;;;;;;;;;20.34;98.72;99448.34;4991389;28;1272;-59
2022/09/02 00:51:47;;;;;;;;;;;;;;;20.33;98.66;99443.97;4992546;28;791;-59
2022/09/02 00:54:14;;;;;;;;;;;;;;;20.28;98.62;99442.59;4992181;28;807;-59
2022/09/02 00:56:42;;;;;;;;;;;;;;;20.26;98.83;99445.09;4992123;28;799;-59
2022/09/02 00:59:13;;;;;;;;;;;;;;;20.22;98.75;99438.91;4992465;28;795;-59
2022/09/02 01:01:40;;;;;;;;;;;;;;;20.22;98.85;99446.53;4992678;28;862;-59
2022/09/02 01:04:06;;;;;;;;;;;;;;;20.21;98.82;99450.63;4992569;28;850;-59
2022/09/02 01:06:34;;;;;;;;;;;;;;;20.18;98.80;99449.53;4992614;28;1894;-59
2022/09/02 01:09:12;;;;;;;;;;;;;;;20.15;99.01;99448.44;4992716;28;870;-59
2022/09/02 01:11:44;;;;;;;;;;;;;;;20.13;99.10;99445.34;4990992;28;1505;-59
2022/09/02 01:14:12;;;;;;;;;;;;;;;20.15;99.03;99453.28;4992222;28;965;-59
2022/09/02 01:16:50;;;;;;;;;;;;;;;20.11;98.96;99447.84;4991980;28;1261;-59
2022/09/02 01:19:21;;;;;;;;;;;;;;;20.06;99.01;99448.50;4992488;28;968;-59
2022/09/02 01:21:49;;;;;;;;;;;;;;;20.00;99.22;99450.41;4992300;28;885;-59
2022/09/02 01:24:16;;;;;;;;;;;;;;;19.96;99.58;99447.78;4992122;28;949;-59
2022/09/02 01:26:43;;;;;;;;;;;;;;;19.93;99.43;99445.16;4992084;28;1977;-59
2022/09/02 01:29:10;;;;;;;;;;;;;;;19.93;99.89;99450.78;4990869;28;1439;-59
2022/09/02 01:31:37;;;;;;;;;;;;;;;19.91;99.81;99442.84;4992097;28;800;-59
2022/09/02 01:34:05;;;;;;;;;;;;;;;19.88;99.89;99437.38;4990902;28;1228;-59
2022/09/02 01:36:32;;;;;;;;;;;;;;;19.79;99.92;99444.59;4992066;28;799;-59
2022/09/02 01:38:59;;;;;;;;;;;;;;;19.73;100.00;99445.72;4992026;28;877;-59
2022/09/02 01:41:26;;;;;;;;;;;;;;;19.75;100.00;99446.03;4991937;28;803;-59
2022/09/02 01:43:53;;;;;;;;;;;;;;;19.66;100.00;99446.03;4992045;28;882;-59
2022/09/02 01:46:20;;;;;;;;;;;;;;;19.59;100.00;99445.13;4991921;28;791;-59
2022/09/02 01:48:48;;;;;;;;;;;;;;;19.60;100.00;99443.09;4991985;28;902;-59
2022/09/02 01:51:19;;;;;;;;;;;;;;;19.63;100.00;99442.16;4991976;28;859;-59
2022/09/02 01:53:47;;;;;;;;;;;;;;;19.71;100.00;99445.41;4991887;28;835;-59
2022/09/02 01:56:14;;;;;;;;;;;;;;;19.72;100.00;99450.56;4992330;28;783;-59
2022/09/02 01:58:41;;;;;;;;;;;;;;;19.76;100.00;99445.56;4992003;28;834;-59
2022/09/02 02:01:08;;;;;;;;;;;;;;;19.84;100.00;99451.56;4992606;28;834;-59
2022/09/02 02:03:36;;;;;;;;;;;;;;;19.86;100.00;99451.09;4992285;28;815;-59
2022/09/02 02:06:13;;;;;;;;;;;;;;;19.84;100.00;99451.56;4992866;28;806;-59
2022/09/02 02:08:40;;;;;;;;;;;;;;;19.85;100.00;99441.16;4995521;28;1945;-59
2022/09/02 02:11:07;;;;;;;;;;;;;;;19.87;100.00;99439.41;4995500;28;914;-59
2022/09/02 02:13:35;;;;;;;;;;;;;;;19.90;99.67;99435.66;4995555;28;838;-59
2022/09/02 02:16:02;;;;;;;;;;;;;;;19.91;99.46;99430.84;4995203;28;1405;-59
2022/09/02 02:18:29;;;;;;;;;;;;;;;19.91;99.39;99437.22;4994095;28;1340;-59
2022/09/02 02:20:56;;;;;;;;;;;;;;;19.90;99.24;99430.03;4995418;28;842;-59
2022/09/02 02:23:23;;;;;;;;;;;;;;;19.88;99.04;99437.38;4995306;28;846;-59
2022/09/02 02:25:50;;;;;;;;;;;;;;;19.87;98.94;99444.25;4995296;28;807;-59
2022/09/02 02:28:17;;;;;;;;;;;;;;;19.84;98.93;99443.16;4993900;28;1995;-59
2022/09/02 02:30:44;;;;;;;;;;;;;;;19.83;98.78;99441.63;4995213;28;841;-59
2022/09/02 02:33:11;;;;;;;;;;;;;;;19.82;98.65;99440.06;4995160;28;870;-59
2022/09/02 02:35:37;;;;;;;;;;;;;;;19.82;98.35;99445.66;4995057;28;818;-59
2022/09/02 02:41:08;;;;;;;;;;;;;;;19.77;98.25;99444.28;4995033;28;609;-59
2022/09/02 02:43:35;;;;;;;;;;;;;;;19.76;98.31;99439.94;4994939;28;841;-59
2022/09/02 02:46:02;;;;;;;;;;;;;;;19.75;98.06;99441.19;4994940;28;807;-59
2022/09/02 02:48:29;;;;;;;;;;;;;;;19.75;98.17;99444.00;4994809;28;2336;-58
2022/09/02 02:50:57;;;;;;;;;;;;;;;19.75;98.06;99441.19;4993557;28;1343;-59
2022/09/02 02:53:28;;;;;;;;;;;;;;;19.77;97.93;99432.31;4994776;28;795;-59
2022/09/02 02:55:55;;;;;;;;;;;;;;;19.73;98.02;99438.06;4994751;28;846;-59
2022/09/02 02:58:21;;;;;;;;;;;;;;;19.74;98.15;99433.25;4994676;28;799;-59
2022/09/02 03:00:50;;;;;;;;;;;;;;;19.75;98.10;99432.00;4994575;28;1130;-59
2022/09/02 03:03:21;;;;;;;;;;;;;;;19.76;97.98;99428.72;4993287;28;1357;-59
2022/09/02 03:05:48;;;;;;;;;;;;;;;19.78;97.88;99434.63;4993238;28;1449;-59
2022/09/02 03:08:17;;;;;;;;;;;;;;;19.81;97.70;99432.91;4994341;28;1951;-59
2022/09/02 03:10:45;;;;;;;;;;;;;;;19.79;97.78;99433.38;4994339;28;1217;-59
2022/09/02 03:13:14;;;;;;;;;;;;;;;19.82;97.69;99440.06;4994377;28;882;-59
2022/09/02 03:15:41;;;;;;;;;;;;;;;19.83;97.50;99438.81;4994916;28;1313;-59
2022/09/02 03:18:08;;;;;;;;;;;;;;;19.88;97.24;99446.56;4994050;28;819;-59
2022/09/02 03:20:35;;;;;;;;;;;;;;;19.85;97.08;99444.72;4994955;28;751;-59
2022/09/02 03:23:03;;;;;;;;;;;;;;;19.82;97.04;99444.91;4994711;28;787;-59
2022/09/02 03:25:30;;;;;;;;;;;;;;;19.81;97.07;99443.34;4993164;28;1236;-59
2022/09/02 03:27:56;;;;;;;;;;;;;;;19.76;96.96;99445.56;4994248;28;1903;-59
2022/09/02 03:30:24;;;;;;;;;;;;;;;19.72;97.06;99441.38;4994121;28;1335;-59
2022/09/02 03:33:10;;;;;;;;;;;;;;;19.67;97.26;99445.56;4994486;28;780;-59
2022/09/02 03:35:44;;;;;;;;;;;;;;;19.66;97.32;99438.41;4992634;28;1382;-59
2022/09/02 03:38:11;;;;;;;;;;;;;;;19.64;97.48;99449.31;4993944;28;866;-59
2022/09/02 03:40:37;;;;;;;;;;;;;;;19.69;97.58;99451.47;4993896;28;839;-59
2022/09/02 03:43:04;;;;;;;;;;;;;;;19.74;97.42;99453.66;4993825;28;890;-59
2022/09/02 03:45:32;;;;;;;;;;;;;;;19.75;97.25;99449.59;4993799;28;866;-59
2022/09/02 03:47:59;;;;;;;;;;;;;;;19.76;97.27;99451.16;4993663;28;1966;-60
2022/09/02 03:50:28;;;;;;;;;;;;;;;19.79;97.14;99447.41;4992432;28;1350;-59
2022/09/02 03:53:00;;;;;;;;;;;;;;;19.84;96.80;99445.97;4993663;28;823;-59
2022/09/02 03:55:53;;;;;;;;;;;;;;;19.87;96.57;99450.66;4993605;28;823;-59
2022/09/02 03:58:21;;;;;;;;;;;;;;;19.91;96.30;99448.44;4990912;28;1174;-59
2022/09/02 04:00:51;;;;;;;;;;;;;;;19.98;95.85;99439.66;4993511;28;823;-59
2022/09/02 04:03:19;;;;;;;;;;;;;;;20.07;95.56;99443.69;4993700;28;945;-59
2022/09/02 04:05:46;;;;;;;;;;;;;;;20.19;95.01;99440.63;4993696;28;892;-59
2022/09/02 04:08:16;;;;;;;;;;;;;;;20.27;94.71;99446.69;4993432;28;1886;-59
2022/09/02 04:10:48;;;;;;;;;;;;;;;20.30;94.26;99448.50;4993203;28;908;-59
2022/09/02 04:13:22;;;;;;;;;;;;;;;20.35;93.91;99441.47;4993298;28;897;-59
2022/09/02 04:15:50;;;;;;;;;;;;;;;20.35;93.54;99455.50;4992930;28;1298;-59
2022/09/02 04:18:18;;;;;;;;;;;;;;;20.35;93.22;99449.88;4993343;28;885;-59
2022/09/02 04:20:44;;;;;;;;;;;;;;;20.35;92.95;99456.25;4993116;28;847;-59
2022/09/02 04:23:10;;;;;;;;;;;;;;;20.40;92.93;99455.63;4993415;28;791;-59
2022/09/02 04:25:41;;;;;;;;;;;;;;;20.47;92.54;99446.06;4992983;28;855;-59
2022/09/02 04:28:18;;;;;;;;;;;;;;;20.57;92.21;99450.38;4993497;28;1911;-59
2022/09/02 04:30:45;;;;;;;;;;;;;;;20.68;91.92;99449.81;4993078;28;807;-59
2022/09/02 04:33:12;;;;;;;;;;;;;;;20.79;91.51;99452.06;4992902;28;796;-59
2022/09/02 04:35:42;;;;;;;;;;;;;;;20.91;90.76;99448.22;4993152;28;874;-59
2022/09/02 04:50:20;;;;;;;;;;;;;;;21.76;86.84;99467.31;4992740;28;605;-59
2022/09/02 04:52:58;;;;;;;;;;;;;;;21.92;85.86;99462.41;4992655;28;874;-59
2022/09/02 04:55:33;;;;;;;;;;;;;;;22.05;85.26;99467.72;4992549;28;791;-59
2022/09/02 04:58:02;;;;;;;;;;;;;;;22.15;84.73;99458.66;4992476;28;1093;-59
2022/09/02 05:00:28;;;;;;;;;;;;;;;22.27;83.93;99467.28;4991253;28;1295;-59
2022/09/02 05:02:57;;;;;;;;;;;;;;;22.36;83.44;99469.94;4992471;28;850;-59
2022/09/02 05:17:35;;;;;;;;;;;;;;;22.96;80.18;99464.78;4991509;28;1387;-59
2022/09/02 05:32:12;;;;;;;;;;;;;;;23.60;76.92;99462.81;4992723;28;657;-59
2022/09/02 05:34:40;;;;;;;;;;;;;;;23.75;76.49;99463.44;4992296;28;856;-59
2022/09/02 05:49:20;;;;;;;;;;;;;;;24.72;72.17;99464.75;4996300;28;703;-59
2022/09/02 05:51:54;;;;;;;;;;;;;;;24.75;71.95;99455.25;4994989;28;2265;-59
2022/09/02 05:54:23;;;;;;;;;;;;;;;24.84;71.29;99461.44;4995807;28;906;-59
2022/09/02 05:56:52;;;;;;;;;;;;;;;24.98;71.06;99461.72;4995797;28;803;-59
2022/09/02 05:59:22;;;;;;;;;;;;;;;24.99;70.61;99461.22;4995810;28;865;-59
2022/09/02 06:01:59;;;;;;;;;;;;;;;25.08;70.28;99451.72;4994551;28;873;-59
2022/09/02 06:04:26;;;;;;;;;;;;;;;25.10;70.27;99457.63;4995668;28;847;-59
2022/09/02 06:06:53;;;;;;;;;;;;;;;25.22;69.94;99455.59;4995493;28;1882;-59
2022/09/02 06:09:26;;;;;;;;;;;;;;;25.29;69.53;99460.00;4995631;28;811;-59
2022/09/02 06:11:52;;;;;;;;;;;;;;;25.38;69.07;99454.09;4995761;28;1031;-59
2022/09/02 06:14:21;;;;;;;;;;;;;;;25.45;68.58;99454.38;4995817;28;838;-59
2022/09/02 06:19:58;;;;;;;;;;;;;;;25.57;68.04;99457.19;4987679;28;1379;-59
2022/09/02 06:22:23;;;;;;;;;;;;;;;25.78;67.10;99463.34;4994093;28;1288;-59
2022/09/02 06:24:51;;;;;;;;;;;;;;;25.90;66.67;99464.13;4995404;28;882;-59
2022/09/02 06:27:17;;;;;;;;;;;;;;;26.14;66.23;99469.19;4995261;28;1915;-59
2022/09/02 06:29:44;;;;;;;;;;;;;;;26.43;65.02;99476.31;4995186;28;884;-59
2022/09/02 06:32:10;;;;;;;;;;;;;;;26.60;64.51;99471.38;4995111;28;933;-59
2022/09/02 06:34:38;;;;;;;;;;;;;;;27.01;62.41;99472.72;4993746;28;1316;-59
2022/09/02 06:37:04;;;;;;;;;;;;;;;27.59;60.37;99464.06;4995222;28;886;-59
2022/09/02 06:39:31;;;;;;;;;;;;;;;28.10;58.17;99475.75;4993763;28;1168;-59
2022/09/02 06:41:57;;;;;;;;;;;;;;;28.71;56.40;99469.88;4993733;28;1192;-59
2022/09/02 06:44:48;;;;;;;;;;;;;;;29.36;54.07;99470.78;4994965;28;902;-59
2022/09/02 06:47:14;;;;;;;;;;;;;;;30.04;52.60;99481.00;4994843;28;1945;-59
2022/09/02 06:52:43;;;;;;;;;;;;;;;30.71;47.42;99484.63;4993632;28;626;-58
2022/09/02 06:55:15;;;;;;;;;;;;;;;30.81;47.80;99487.78;4994942;28;779;-59
2022/09/02 06:57:48;;;;;;;;;;;;;;;31.21;46.81;99490.53;4994704;28;795;-59
2022/09/02 07:00:15;;;;;;;;;;;;;;;31.40;46.37;99485.41;4994949;28;897;-59
2022/09/02 07:02:42;;;;;;;;;;;;;;;31.20;46.14;99478.38;4994637;28;871;-59
2022/09/02 07:05:10;;;;;;;;;;;;;;;31.58;45.71;99477.22;4993188;28;1474;-59
2022/09/02 07:07:38;;;;;;;;;;;;;;;31.66;45.36;99478.06;4994472;28;1953;-59
2022/09/02 07:10:05;;;;;;;;;;;;;;;31.82;43.83;99488.28;4994428;28;791;-59
2022/09/02 07:12:34;;;;;;;;;;;;;;;31.98;42.96;99486.34;4994866;28;954;-59
2022/09/02 07:15:01;;;;;;;;;;;;;;;31.98;42.99;99485.53;4994384;28;823;-59
2022/09/02 07:17:28;;;;;;;;;;;;;;;31.80;42.86;99488.09;4994290;28;759;-58
2022/09/02 07:19:58;;;;;;;;;;;;;;;31.59;43.72;99488.09;4994146;28;1291;-58
2022/09/02 07:22:26;;;;;;;;;;;;;;;31.47;44.03;99492.53;4992898;28;1379;-59
2022/09/02 07:24:51;;;;;;;;;;;;;;;31.86;43.31;99499.38;4994848;28;807;-59
2022/09/02 07:27:19;;;;;;;;;;;;;;;32.29;41.40;99486.53;4994244;28;1918;-59
2022/09/02 07:29:48;;;;;;;;;;;;;;;33.02;41.04;99490.13;4994437;28;843;-58
2022/09/02 07:32:27;;;;;;;;;;;;;;;33.32;39.66;99495.19;4994620;28;846;-58
2022/09/02 07:34:54;;;;;;;;;;;;;;;32.93;40.19;99500.03;4992610;28;1168;-58
2022/09/02 07:37:21;;;;;;;;;;;;;;;32.10;41.42;99483.94;4993984;28;791;-59
2022/09/02 07:39:48;;;;;;;;;;;;;;;31.77;42.02;99494.91;4992629;28;1378;-59
2022/09/02 07:42:15;;;;;;;;;;;;;;;31.25;43.06;99488.88;4993888;28;874;-59
2022/09/02 07:44:42;;;;;;;;;;;;;;;31.53;42.86;99491.06;4993886;28;823;-59
2022/09/02 07:47:09;;;;;;;;;;;;;;;31.47;43.52;99487.63;4993739;28;1949;-59
2022/09/02 07:49:36;;;;;;;;;;;;;;;31.99;42.00;99484.25;4992466;28;1311;-59
2022/09/02 07:52:04;;;;;;;;;;;;;;;32.92;40.09;99484.22;4993747;28;826;-59
2022/09/02 07:54:31;;;;;;;;;;;;;;;33.59;39.65;99485.50;4993613;28;866;-59
2022/09/02 07:56:59;;;;;;;;;;;;;;;34.34;38.01;99483.19;4993590;28;899;-59
2022/09/02 07:59:25;;;;;;;;;;;;;;;34.17;36.22;99489.53;4993603;28;865;-59
2022/09/02 08:01:52;;;;;;;;;;;;;;;33.88;37.43;99489.69;4992135;28;1308;-59
2022/09/02 08:04:22;;;;;;;;;;;;;;;33.42;38.49;99488.91;4993103;28;882;-59
2022/09/02 08:06:49;;;;;;;;;;;;;;;33.66;38.38;99479.78;4993274;28;1882;-59
2022/09/02 08:09:17;;;;;;;;;;;;;;;33.10;38.64;99476.63;4993613;28;858;-59
2022/09/02 08:11:46;;;;;;;;;;;;;;;33.62;38.18;99475.78;4993549;28;1036;-59
2022/09/02 08:14:16;;;;;;;;;;;;;;;34.14;37.50;99470.59;4993316;28;838;-59
2022/09/02 08:16:43;;;;;;;;;;;;;;;33.69;38.13;99466.41;4993371;28;850;-60
2022/09/02 08:19:12;;;;;;;;;;;;;;;33.03;38.87;99477.38;4993043;28;1375;-59
2022/09/02 08:21:40;;;;;;;;;;;;;;;33.48;38.66;99475.16;4991827;28;1370;-59
2022/09/02 08:24:09;;;;;;;;;;;;;;;33.25;38.01;99464.44;4993082;28;853;-59
2022/09/02 08:26:37;;;;;;;;;;;;;;;32.77;39.02;99466.19;4993109;28;799;-59
2022/09/02 08:29:05;;;;;;;;;;;;;;;32.69;39.88;99477.59;4993072;28;811;-59
2022/09/02 08:31:32;;;;;;;;;;;;;;;31.91;41.58;99478.44;4993098;28;795;-59
2022/09/02 08:33:59;;;;;;;;;;;;;;;32.53;41.14;99468.97;4992807;28;854;-59
2022/09/02 08:36:27;;;;;;;;;;;;;;;33.60;39.09;99458.41;4993165;28;823;-59
2022/09/02 08:38:54;;;;;;;;;;;;;;;34.11;37.88;99451.66;4992824;28;822;-59
2022/09/02 08:41:25;;;;;;;;;;;;;;;34.39;37.01;99450.66;4992825;28;839;-59
2022/09/02 08:43:53;;;;;;;;;;;;;;;34.63;36.71;99454.19;4992752;28;874;-59
2022/09/02 08:46:24;;;;;;;;;;;;;;;35.11;36.48;99448.41;4992670;28;890;-59
2022/09/02 08:49:24;;;;;;;;;;;;;;;35.43;35.33;99452.63;4976174;28;1891;-59
2022/09/02 08:51:55;;;;;;;;;;;;;;;35.13;35.05;99446.50;4980309;28;1402;-59
2022/09/02 08:54:26;;;;;;;;;;;;;;;35.01;34.91;99451.16;4992587;28;910;-59
2022/09/02 08:56:53;;;;;;;;;;;;;;;34.42;36.30;99451.59;4992808;28;855;-59
2022/09/02 08:59:28;;;;;;;;;;;;;;;34.80;36.14;99447.81;4992512;28;796;-59
2022/09/02 09:02:16;;;;;;;;;;;;;;;34.35;36.36;99453.13;4992386;28;807;-59
2022/09/02 09:04:55;;;;;;;;;;;;;;;34.36;35.01;99437.47;4992407;28;1117;-59
2022/09/02 09:07:33;;;;;;;;;;;;;;;32.95;37.33;99439.38;4990974;28;1942;-60
2022/09/02 09:10:16;;;;;;;;;;;;;;;31.74;39.68;99447.47;4992375;28;828;-61
2022/09/02 09:12:47;;;;;;;;;;;;;;;31.24;41.48;99443.75;4991445;28;1219;-60
2022/09/02 09:15:32;;;;;;;;;;;;;;;31.88;41.12;99436.72;4992103;28;792;-60
2022/09/02 09:18:01;;;;;;;;;;;;;;;32.02;40.77;99437.41;4992277;28;806;-61
2022/09/02 09:20:38;;;;;;;;;;;;;;;31.62;41.00;99437.66;4992005;28;1377;-61
2022/09/02 09:23:19;;;;;;;;;;;;;;;31.11;42.20;99430.31;4992207;28;822;-62
2022/09/02 09:25:48;;;;;;;;;;;;;;;30.30;43.33;99429.75;4990949;28;1196;-61
2022/09/02 09:28:15;;;;;;;;;;;;;;;29.99;44.79;99428.53;4990814;28;1961;-61
2022/09/02 09:30:42;;;;;;;;;;;;;;;30.04;44.75;99435.41;4992185;28;815;-62
2022/09/02 09:33:14;;;;;;;;;;;;;;;30.00;45.09;99438.63;4992116;28;865;-61
2022/09/02 09:35:49;;;;;;;;;;;;;;;30.25;44.82;99435.53;4992149;28;826;-61
2022/09/02 09:38:28;;;;;;;;;;;;;;;30.77;44.33;99407.47;4992370;28;866;-61
2022/09/02 09:41:17;;;;;;;;;;;;;;;32.21;43.01;99423.59;4992133;28;826;-60
2022/09/02 09:43:43;;;;;;;;;;;;;;;31.82;44.71;99428.28;4992129;28;838;-60
2022/09/02 09:46:28;;;;;;;;;;;;;;;31.38;46.15;99435.91;4992209;28;839;-61
2022/09/02 09:48:55;;;;;;;;;;;;;;;30.63;48.09;99438.13;4991947;28;1930;-61
2022/09/02 09:51:22;;;;;;;;;;;;;;;30.12;49.77;99442.75;4992260;28;791;-61
2022/09/02 09:53:49;;;;;;;;;;;;;;;29.97;49.50;99444.63;4991921;28;922;-61
2022/09/02 09:56:16;;;;;;;;;;;;;;;29.81;49.01;99449.31;4990604;28;1457;-61
2022/09/02 09:58:45;;;;;;;;;;;;;;;30.24;47.99;99446.16;4990682;28;1498;-61
2022/09/02 10:01:15;;;;;;;;;;;;;;;30.46;47.92;99452.75;4990484;28;1332;-61
2022/09/02 10:03:43;;;;;;;;;;;;;;;29.96;48.72;99441.03;4991961;28;870;-60
2022/09/02 10:06:21;;;;;;;;;;;;;;;29.99;48.49;99433.47;4991852;28;819;-60
2022/09/02 10:08:55;;;;;;;;;;;;;;;29.64;49.62;99426.84;4991729;28;1890;-60
2022/09/02 10:11:25;;;;;;;;;;;;;;;30.00;48.82;99412.19;4990553;28;1292;-60
2022/09/02 10:13:59;;;;;;;;;;;;;;;30.41;47.90;99405.94;4990498;28;1334;-60
2022/09/02 10:16:29;;;;;;;;;;;;;;;30.91;46.47;99398.34;4990425;28;853;-60
2022/09/02 10:19:02;;;;;;;;;;;;;;;31.30;45.92;99390.94;4991520;28;1420;-59
2022/09/02 10:21:29;;;;;;;;;;;;;;;31.35;45.01;99377.84;4991755;28;862;-60
2022/09/02 10:24:18;;;;;;;;;;;;;;;31.13;45.60;99382.78;4990458;28;1251;-59
2022/09/02 10:26:52;;;;;;;;;;;;;;;31.04;45.75;99391.81;4991847;28;1907;-60
2022/09/02 10:29:37;;;;;;;;;;;;;;;30.71;46.25;99401.91;4995203;28;918;-60
2022/09/02 10:32:20;;;;;;;;;;;;;;;30.90;46.12;99405.38;4995069;28;803;-60
2022/09/02 10:34:58;;;;;;;;;;;;;;;31.19;45.38;99410.41;4993867;28;1256;-60
2022/09/02 10:37:26;;;;;;;;;;;;;;;31.43;44.45;99400.75;4993966;28;1243;-60
2022/09/02 10:40:03;;;;;;;;;;;;;;;30.97;45.77;99401.06;4995296;28;819;-59
2022/09/02 10:42:47;;;;;;;;;;;;;;;31.37;43.68;99391.53;4993767;28;1319;-60
2022/09/02 10:45:33;;;;;;;;;;;;;;;31.87;42.87;99393.06;4994964;28;792;-60
2022/09/02 10:48:00;;;;;;;;;;;;;;;31.64;42.85;99397.88;4994811;28;1945;-60
2022/09/02 10:50:53;;;;;;;;;;;;;;;31.92;42.75;99385.66;4993637;28;1204;-60
2022/09/02 10:53:30;;;;;;;;;;;;;;;31.91;42.37;99387.78;4964414;28;1221;-60
2022/09/02 10:56:04;;;;;;;;;;;;;;;32.02;41.97;99383.09;4994905;28;886;-59
2022/09/02 10:58:40;;;;;;;;;;;;;;;31.85;42.11;99390.00;4993465;28;882;-60
2022/09/02 11:01:13;;;;;;;;;;;;;;;30.99;43.58;99392.72;4994576;28;830;-61
2022/09/02 11:04:05;;;;;;;;;;;;;;;30.35;44.84;99393.13;4994793;28;831;-61
2022/09/02 11:06:37;;;;;;;;;;;;;;;29.70;45.65;99379.88;4994557;28;806;-61
2022/09/02 11:09:21;;;;;;;;;;;;;;;29.19;46.43;99374.28;4994473;28;1953;-60
2022/09/02 11:11:59;;;;;;;;;;;;;;;28.97;47.03;99381.06;4993263;28;1157;-62
2022/09/02 11:14:36;;;;;;;;;;;;;;;29.00;47.40;99374.31;4994396;28;953;-61
2022/09/02 11:17:08;;;;;;;;;;;;;;;29.38;47.17;99379.91;4994352;28;878;-62
2022/09/02 11:19:41;;;;;;;;;;;;;;;29.80;45.83;99382.28;4994115;28;1226;-62
2022/09/02 11:22:15;;;;;;;;;;;;;;;30.82;44.59;99375.22;4993006;28;1370;-62
2022/09/02 11:24:48;;;;;;;;;;;;;;;31.09;43.99;99373.06;4994328;28;858;-62
2022/09/02 11:27:33;;;;;;;;;;;;;;;30.70;43.91;99375.50;4994160;28;1918;-62
2022/09/02 11:30:05;;;;;;;;;;;;;;;30.20;44.40;99360.22;4992701;28;1272;-61
2022/09/02 11:32:36;;;;;;;;;;;;;;;29.98;45.06;99355.00;4994091;28;830;-61
2022/09/02 11:35:07;;;;;;;;;;;;;;;30.30;45.09;99344.25;4992799;28;1375;-61
2022/09/02 11:37:40;;;;;;;;;;;;;;;31.53;43.80;99334.00;4994251;28;826;-61
2022/09/02 11:40:13;;;;;;;;;;;;;;;33.22;41.13;99328.16;4993323;28;846;-60
2022/09/02 11:42:46;;;;;;;;;;;;;;;34.56;39.22;99329.50;4992677;28;1387;-61
2022/09/02 11:45:21;;;;;;;;;;;;;;;35.21;36.38;99322.97;4993744;28;945;-60
2022/09/02 11:48:07;;;;;;;;;;;;;;;35.14;37.02;99304.47;4992491;28;1886;-61
2022/09/02 11:50:34;;;;;;;;;;;;;;;35.10;36.42;99312.69;4992751;28;1204;-62
2022/09/02 11:53:06;;;;;;;;;;;;;;;35.24;36.12;99298.81;4993836;28;842;-60
2022/09/02 11:55:47;;;;;;;;;;;;;;;35.02;35.72;99302.63;4993689;28;839;-60
2022/09/02 11:58:33;;;;;;;;;;;;;;;35.01;36.13;99289.59;4992348;28;1229;-60
2022/09/02 12:01:05;;;;;;;;;;;;;;;35.07;36.21;99288.03;4993455;28;854;-60
2022/09/02 12:03:32;;;;;;;;;;;;;;;35.44;35.56;99285.38;4993448;28;891;-60
2022/09/02 12:06:07;;;;;;;;;;;;;;;35.52;35.40;99279.56;4993486;28;819;-58
2022/09/02 12:08:35;;;;;;;;;;;;;;;35.18;36.05;99278.94;4992082;28;1955;-58
2022/09/02 12:11:06;;;;;;;;;;;;;;;35.54;36.46;99276.88;4993383;28;1044;-58
2022/09/02 12:13:47;;;;;;;;;;;;;;;36.07;35.86;99283.38;4993269;28;1086;-58
2022/09/02 12:16:14;;;;;;;;;;;;;;;35.69;35.11;99285.34;4993256;28;869;-58
2022/09/02 12:18:53;;;;;;;;;;;;;;;34.92;36.73;99282.41;4992969;28;1238;-58
2022/09/02 12:21:21;;;;;;;;;;;;;;;34.77;36.95;99281.19;4992125;28;1420;-58
2022/09/02 12:23:51;;;;;;;;;;;;;;;33.63;38.54;99280.41;4993309;28;815;-59
2022/09/02 12:26:39;;;;;;;;;;;;;;;32.72;40.88;99273.38;4993180;28;850;-59
2022/09/02 12:29:19;;;;;;;;;;;;;;;32.37;41.68;99287.19;4992790;28;1894;-59
2022/09/02 12:31:50;;;;;;;;;;;;;;;31.63;41.46;99290.69;4991664;28;1168;-59
2022/09/02 12:34:19;;;;;;;;;;;;;;;30.63;43.67;99279.19;4993607;28;771;-59
2022/09/02 12:36:50;;;;;;;;;;;;;;;30.00;44.97;99278.28;4991647;28;1306;-61
2022/09/02 12:39:30;;;;;;;;;;;;;;;29.62;45.70;99281.41;4992774;28;1127;-61
2022/09/02 12:42:02;;;;;;;;;;;;;;;29.38;46.40;99283.16;4991476;28;1244;-61
2022/09/02 12:44:48;;;;;;;;;;;;;;;29.22;47.10;99289.91;4992844;28;795;-61
2022/09/02 12:47:28;;;;;;;;;;;;;;;28.97;47.15;99297.81;4992790;28;1952;-61
2022/09/02 12:49:54;;;;;;;;;;;;;;;28.83;47.48;99297.78;4992474;28;827;-60
2022/09/02 12:52:40;;;;;;;;;;;;;;;28.86;47.55;99305.22;4992014;28;838;-60
2022/09/02 12:55:25;;;;;;;;;;;;;;;28.77;49.47;99307.72;4992561;28;815;-60
2022/09/02 12:57:54;;;;;;;;;;;;;;;28.52;50.94;99312.75;4992500;28;816;-60
2022/09/02 13:00:29;;;;;;;;;;;;;;;28.46;51.37;99304.28;4992513;28;864;-60
2022/09/02 13:02:56;;;;;;;;;;;;;;;28.50;51.34;99307.59;4992479;28;922;-60
2022/09/02 13:05:24;;;;;;;;;;;;;;;28.62;50.53;99314.66;4992457;28;823;-60
2022/09/02 13:08:00;;;;;;;;;;;;;;;28.68;50.46;99317.44;4992466;28;1953;-60
2022/09/02 13:10:39;;;;;;;;;;;;;;;28.47;50.50;99314.34;4992396;28;849;-60
2022/09/02 13:13:06;;;;;;;;;;;;;;;28.32;51.30;99308.38;4992342;28;819;-60
2022/09/02 13:15:42;;;;;;;;;;;;;;;28.37;51.52;99299.00;4991048;28;1307;-61
2022/09/02 13:18:22;;;;;;;;;;;;;;;28.41;51.44;99299.44;4992356;28;847;-60
2022/09/02 13:20:55;;;;;;;;;;;;;;;28.44;51.63;99301.19;4992270;28;870;-60
2022/09/02 13:23:22;;;;;;;;;;;;;;;28.44;52.16;99316.19;4990909;28;1394;-60
2022/09/02 13:26:03;;;;;;;;;;;;;;;28.15;53.38;99317.13;4991025;28;1208;-60
2022/09/02 13:28:48;;;;;;;;;;;;;;;27.77;54.49;99322.72;4990743;28;1957;-59
2022/09/02 13:31:22;;;;;;;;;;;;;;;27.56;55.57;99322.44;4992121;28;830;-60
2022/09/02 13:34:02;;;;;;;;;;;;;;;27.59;55.53;99321.38;4992297;28;878;-60
2022/09/02 13:36:31;;;;;;;;;;;;;;;27.46;56.17;99328.47;4992133;28;893;-60
2022/09/02 13:39:10;;;;;;;;;;;;;;;27.36;56.56;99318.03;4992056;28;795;-60
2022/09/02 13:41:38;;;;;;;;;;;;;;;27.33;57.34;99313.38;4990800;28;1192;-59
2022/09/02 13:44:06;;;;;;;;;;;;;;;27.42;56.90;99299.63;4992242;28;807;-60
2022/09/02 13:46:32;;;;;;;;;;;;;;;27.59;56.86;99296.63;4992001;28;885;-60
2022/09/02 13:48:59;;;;;;;;;;;;;;;27.74;56.35;99284.81;4990689;28;1894;-60
2022/09/02 13:51:26;;;;;;;;;;;;;;;27.72;56.58;99276.06;4992013;28;865;-60
2022/09/02 13:53:59;;;;;;;;;;;;;;;27.74;56.04;99276.31;4991964;28;890;-60
2022/09/02 13:56:29;;;;;;;;;;;;;;;27.74;56.12;99272.69;4991954;28;893;-60
2022/09/02 13:58:56;;;;;;;;;;;;;;;27.78;55.71;99270.31;4991973;28;823;-59
2022/09/02 14:01:31;;;;;;;;;;;;;;;27.85;55.70;99266.88;4991942;28;831;-60
2022/09/02 14:03:59;;;;;;;;;;;;;;;27.81;55.10;99270.00;4995669;28;894;-60
2022/09/02 14:06:38;;;;;;;;;;;;;;;27.83;54.71;99281.59;4995743;28;827;-60
2022/09/02 14:09:18;;;;;;;;;;;;;;;27.84;55.19;99300.16;4995559;28;1903;-60
2022/09/02 14:11:47;;;;;;;;;;;;;;;27.74;55.40;99301.06;4994435;28;1177;-60
2022/09/02 14:14:14;;;;;;;;;;;;;;;27.74;55.51;99303.91;4995528;28;878;-60
2022/09/02 14:16:41;;;;;;;;;;;;;;;27.68;55.96;99306.84;4995561;28;831;-60
2022/09/02 14:19:09;;;;;;;;;;;;;;;27.51;56.38;99298.50;4993951;28;1718;-60
2022/09/02 14:21:37;;;;;;;;;;;;;;;27.40;57.20;99285.22;4995480;28;953;-60
2022/09/02 14:24:04;;;;;;;;;;;;;;;27.25;57.66;99282.03;4995354;28;823;-60
2022/09/02 14:26:35;;;;;;;;;;;;;;;27.14;58.33;99284.91;4993956;28;1307;-60
2022/09/02 14:29:06;;;;;;;;;;;;;;;26.97;59.07;99282.25;4995221;28;1965;-60
2022/09/02 14:31:33;;;;;;;;;;;;;;;26.76;60.12;99274.19;4994147;28;1318;-60
2022/09/02 14:34:00;;;;;;;;;;;;;;;26.61;60.81;99270.97;4994453;28;1374;-60
2022/09/02 14:36:33;;;;;;;;;;;;;;;26.53;61.70;99273.56;4995466;28;815;-59